sensor_id;sensor_type;location;lat;lon;timestamp;P1;durP1;ratioP1;P2;durP2;ratioP2
71626;SDS011;59475;52.464;13.590;2023-04-24T00:00:20;5.10;;;4.57;;
71626;SDS011;59475;52.464;13.590;2023-04-24T00:02:45;7.37;;;4.70;;
71626;SDS011;59475;52.464;13.590;2023-04-24T00:05:12;6.05;;;4.40;;
71626;SDS011;59475;52.464;13.590;2023-04-24T00:07:38;6.07;;;4.97;;
71626;SDS011;59475;52.464;13.590;2023-04-24T00:10:05;6.45;;;5.05;;
71626;SDS011;59475;52.464;13.590;2023-04-24T00:12:31;6.70;;;5.00;;
71626;SDS011;59475;52.464;13.590;2023-04-24T00:14:56;8.23;;;4.80;;
71626;SDS011;59475;52.464;13.590;2023-04-24T00:17:22;6.33;;;4.80;;
71626;SDS011;59475;52.464;13.590;2023-04-24T00:19:47;6.13;;;4.67;;
71626;SDS011;59475;52.464;13.590;2023-04-24T00:22:13;6.95;;;4.55;;
71626;SDS011;59475;52.464;13.590;2023-04-24T00:24:39;6.38;;;5.00;;
71626;SDS011;59475;52.464;13.590;2023-04-24T00:27:05;7.50;;;5.00;;
71626;SDS011;59475;52.464;13.590;2023-04-24T00:29:31;5.70;;;5.03;;
71626;SDS011;59475;52.464;13.590;2023-04-24T00:31:56;6.83;;;4.67;;
71626;SDS011;59475;52.464;13.590;2023-04-24T00:34:22;10.70;;;5.88;;
71626;SDS011;59475;52.464;13.590;2023-04-24T00:36:47;6.23;;;4.83;;
71626;SDS011;59475;52.464;13.590;2023-04-24T00:39:15;4.65;;;4.18;;
71626;SDS011;59475;52.464;13.590;2023-04-24T00:41:41;5.00;;;4.50;;
71626;SDS011;59475;52.464;13.590;2023-04-24T00:44:06;8.38;;;5.22;;
71626;SDS011;59475;52.464;13.590;2023-04-24T00:46:32;6.97;;;4.93;;
71626;SDS011;59475;52.464;13.590;2023-04-24T00:48:57;6.77;;;4.80;;
71626;SDS011;59475;52.464;13.590;2023-04-24T00:51:24;6.57;;;4.38;;
71626;SDS011;59475;52.464;13.590;2023-04-24T00:53:50;6.32;;;4.50;;
71626;SDS011;59475;52.464;13.590;2023-04-24T00:56:16;6.38;;;4.43;;
71626;SDS011;59475;52.464;13.590;2023-04-24T00:58:42;5.20;;;4.70;;
71626;SDS011;59475;52.464;13.590;2023-04-24T01:01:08;5.93;;;4.50;;
71626;SDS011;59475;52.464;13.590;2023-04-24T01:03:34;8.68;;;4.32;;
71626;SDS011;59475;52.464;13.590;2023-04-24T01:06:02;5.60;;;4.50;;
71626;SDS011;59475;52.464;13.590;2023-04-24T01:08:28;8.27;;;4.75;;
71626;SDS011;59475;52.464;13.590;2023-04-24T01:10:54;6.10;;;5.13;;
71626;SDS011;59475;52.464;13.590;2023-04-24T01:13:21;5.40;;;4.43;;
71626;SDS011;59475;52.464;13.590;2023-04-24T01:15:47;6.32;;;5.15;;
71626;SDS011;59475;52.464;13.590;2023-04-24T01:18:13;8.05;;;5.50;;
71626;SDS011;59475;52.464;13.590;2023-04-24T01:20:40;6.45;;;5.38;;
71626;SDS011;59475;52.464;13.590;2023-04-24T01:23:07;6.50;;;5.80;;
71626;SDS011;59475;52.464;13.590;2023-04-24T01:25:32;8.27;;;5.40;;
71626;SDS011;59475;52.464;13.590;2023-04-24T01:27:59;7.67;;;5.30;;
71626;SDS011;59475;52.464;13.590;2023-04-24T01:30:24;7.88;;;6.00;;
71626;SDS011;59475;52.464;13.590;2023-04-24T01:32:51;8.85;;;5.32;;
71626;SDS011;59475;52.464;13.590;2023-04-24T01:35:17;5.95;;;5.18;;
71626;SDS011;59475;52.464;13.590;2023-04-24T01:37:42;7.73;;;5.37;;
71626;SDS011;59475;52.464;13.590;2023-04-24T01:40:08;8.30;;;5.72;;
71626;SDS011;59475;52.464;13.590;2023-04-24T01:42:34;7.50;;;5.97;;
71626;SDS011;59475;52.464;13.590;2023-04-24T01:44:59;7.82;;;5.43;;
71626;SDS011;59475;52.464;13.590;2023-04-24T01:47:26;6.70;;;5.35;;
71626;SDS011;59475;52.464;13.590;2023-04-24T01:49:52;6.50;;;5.40;;
71626;SDS011;59475;52.464;13.590;2023-04-24T01:52:17;6.40;;;5.47;;
71626;SDS011;59475;52.464;13.590;2023-04-24T01:54:43;8.23;;;6.25;;
71626;SDS011;59475;52.464;13.590;2023-04-24T01:57:09;7.50;;;5.50;;
71626;SDS011;59475;52.464;13.590;2023-04-24T01:59:35;7.97;;;5.63;;
71626;SDS011;59475;52.464;13.590;2023-04-24T02:02:02;7.10;;;5.70;;
71626;SDS011;59475;52.464;13.590;2023-04-24T02:04:28;7.65;;;5.55;;
71626;SDS011;59475;52.464;13.590;2023-04-24T02:06:53;6.83;;;5.10;;
71626;SDS011;59475;52.464;13.590;2023-04-24T02:09:19;7.05;;;5.22;;
71626;SDS011;59475;52.464;13.590;2023-04-24T02:11:44;6.77;;;5.60;;
71626;SDS011;59475;52.464;13.590;2023-04-24T02:14:10;6.03;;;5.43;;
71626;SDS011;59475;52.464;13.590;2023-04-24T02:16:35;6.60;;;5.33;;
71626;SDS011;59475;52.464;13.590;2023-04-24T02:19:01;7.73;;;5.33;;
71626;SDS011;59475;52.464;13.590;2023-04-24T02:21:27;6.25;;;5.25;;
71626;SDS011;59475;52.464;13.590;2023-04-24T02:23:53;7.00;;;5.87;;
71626;SDS011;59475;52.464;13.590;2023-04-24T02:26:18;8.85;;;5.60;;
71626;SDS011;59475;52.464;13.590;2023-04-24T02:28:44;6.57;;;5.63;;
71626;SDS011;59475;52.464;13.590;2023-04-24T02:31:09;5.97;;;5.27;;
71626;SDS011;59475;52.464;13.590;2023-04-24T02:33:35;6.22;;;5.50;;
71626;SDS011;59475;52.464;13.590;2023-04-24T02:36:01;8.27;;;5.57;;
71626;SDS011;59475;52.464;13.590;2023-04-24T02:38:27;7.88;;;5.60;;
71626;SDS011;59475;52.464;13.590;2023-04-24T02:40:53;6.77;;;5.90;;
71626;SDS011;59475;52.464;13.590;2023-04-24T02:43:18;8.35;;;5.97;;
71626;SDS011;59475;52.464;13.590;2023-04-24T02:45:44;7.20;;;6.17;;
71626;SDS011;59475;52.464;13.590;2023-04-24T02:48:09;7.63;;;6.27;;
71626;SDS011;59475;52.464;13.590;2023-04-24T02:50:34;6.90;;;5.97;;
71626;SDS011;59475;52.464;13.590;2023-04-24T02:53:00;6.63;;;5.37;;
71626;SDS011;59475;52.464;13.590;2023-04-24T02:55:25;7.20;;;5.97;;
71626;SDS011;59475;52.464;13.590;2023-04-24T02:57:51;6.80;;;5.70;;
71626;SDS011;59475;52.464;13.590;2023-04-24T03:00:16;9.00;;;6.00;;
71626;SDS011;59475;52.464;13.590;2023-04-24T03:02:42;7.30;;;5.30;;
71626;SDS011;59475;52.464;13.590;2023-04-24T03:05:07;7.47;;;5.73;;
71626;SDS011;59475;52.464;13.590;2023-04-24T03:07:33;7.78;;;5.97;;
71626;SDS011;59475;52.464;13.590;2023-04-24T03:09:59;7.50;;;6.03;;
71626;SDS011;59475;52.464;13.590;2023-04-24T03:12:24;6.23;;;5.63;;
71626;SDS011;59475;52.464;13.590;2023-04-24T03:14:50;12.10;;;6.40;;
71626;SDS011;59475;52.464;13.590;2023-04-24T03:17:15;9.13;;;6.03;;
71626;SDS011;59475;52.464;13.590;2023-04-24T03:19:41;7.68;;;5.05;;
71626;SDS011;59475;52.464;13.590;2023-04-24T03:22:06;6.90;;;5.30;;
71626;SDS011;59475;52.464;13.590;2023-04-24T03:24:34;9.10;;;5.93;;
71626;SDS011;59475;52.464;13.590;2023-04-24T03:26:59;6.87;;;6.13;;
71626;SDS011;59475;52.464;13.590;2023-04-24T03:29:25;7.40;;;6.10;;
71626;SDS011;59475;52.464;13.590;2023-04-24T03:31:50;8.30;;;6.38;;
71626;SDS011;59475;52.464;13.590;2023-04-24T03:34:15;7.33;;;6.43;;
71626;SDS011;59475;52.464;13.590;2023-04-24T03:36:41;7.43;;;5.73;;
71626;SDS011;59475;52.464;13.590;2023-04-24T03:39:06;6.23;;;5.50;;
71626;SDS011;59475;52.464;13.590;2023-04-24T03:41:32;8.68;;;6.55;;
71626;SDS011;59475;52.464;13.590;2023-04-24T03:43:58;7.47;;;6.17;;
71626;SDS011;59475;52.464;13.590;2023-04-24T03:46:23;8.05;;;6.18;;
71626;SDS011;59475;52.464;13.590;2023-04-24T03:48:49;8.13;;;6.10;;
71626;SDS011;59475;52.464;13.590;2023-04-24T03:51:14;8.97;;;5.90;;
71626;SDS011;59475;52.464;13.590;2023-04-24T03:53:40;7.57;;;6.33;;
71626;SDS011;59475;52.464;13.590;2023-04-24T03:56:05;6.82;;;5.80;;
71626;SDS011;59475;52.464;13.590;2023-04-24T03:58:31;7.33;;;5.93;;
71626;SDS011;59475;52.464;13.590;2023-04-24T04:00:56;6.63;;;5.63;;
71626;SDS011;59475;52.464;13.590;2023-04-24T04:03:23;8.18;;;6.18;;
71626;SDS011;59475;52.464;13.590;2023-04-24T04:05:48;7.93;;;6.30;;
71626;SDS011;59475;52.464;13.590;2023-04-24T04:08:14;9.73;;;6.33;;
71626;SDS011;59475;52.464;13.590;2023-04-24T04:10:40;6.27;;;5.67;;
71626;SDS011;59475;52.464;13.590;2023-04-24T04:13:05;7.13;;;5.85;;
71626;SDS011;59475;52.464;13.590;2023-04-24T04:15:31;7.07;;;6.03;;
71626;SDS011;59475;52.464;13.590;2023-04-24T04:17:57;7.78;;;6.03;;
71626;SDS011;59475;52.464;13.590;2023-04-24T04:20:22;9.13;;;6.07;;
71626;SDS011;59475;52.464;13.590;2023-04-24T04:22:48;7.60;;;5.47;;
71626;SDS011;59475;52.464;13.590;2023-04-24T04:25:13;7.15;;;5.97;;
71626;SDS011;59475;52.464;13.590;2023-04-24T04:27:39;7.30;;;5.83;;
71626;SDS011;59475;52.464;13.590;2023-04-24T04:30:07;8.23;;;5.88;;
71626;SDS011;59475;52.464;13.590;2023-04-24T04:32:36;6.47;;;5.78;;
71626;SDS011;59475;52.464;13.590;2023-04-24T04:35:02;9.07;;;6.07;;
71626;SDS011;59475;52.464;13.590;2023-04-24T04:37:28;7.25;;;5.70;;
71626;SDS011;59475;52.464;13.590;2023-04-24T04:39:54;7.25;;;6.07;;
71626;SDS011;59475;52.464;13.590;2023-04-24T04:42:19;7.80;;;5.30;;
71626;SDS011;59475;52.464;13.590;2023-04-24T04:44:45;8.03;;;5.50;;
71626;SDS011;59475;52.464;13.590;2023-04-24T04:47:11;8.70;;;5.82;;
71626;SDS011;59475;52.464;13.590;2023-04-24T04:49:37;7.87;;;5.97;;
71626;SDS011;59475;52.464;13.590;2023-04-24T04:52:03;7.50;;;5.63;;
71626;SDS011;59475;52.464;13.590;2023-04-24T04:54:29;6.72;;;5.38;;
71626;SDS011;59475;52.464;13.590;2023-04-24T04:56:54;6.77;;;5.73;;
71626;SDS011;59475;52.464;13.590;2023-04-24T04:59:20;7.60;;;5.77;;
71626;SDS011;59475;52.464;13.590;2023-04-24T05:01:45;6.82;;;5.40;;
71626;SDS011;59475;52.464;13.590;2023-04-24T05:04:11;6.83;;;4.63;;
71626;SDS011;59475;52.464;13.590;2023-04-24T05:06:36;7.70;;;5.40;;
71626;SDS011;59475;52.464;13.590;2023-04-24T05:09:02;7.83;;;5.33;;
71626;SDS011;59475;52.464;13.590;2023-04-24T05:11:28;7.55;;;4.80;;
71626;SDS011;59475;52.464;13.590;2023-04-24T05:13:54;6.70;;;4.90;;
71626;SDS011;59475;52.464;13.590;2023-04-24T05:16:20;7.60;;;5.13;;
71626;SDS011;59475;52.464;13.590;2023-04-24T05:18:46;6.85;;;4.68;;
71626;SDS011;59475;52.464;13.590;2023-04-24T05:21:11;8.97;;;5.07;;
71626;SDS011;59475;52.464;13.590;2023-04-24T05:23:37;7.23;;;5.27;;
71626;SDS011;59475;52.464;13.590;2023-04-24T05:26:02;7.40;;;4.70;;
71626;SDS011;59475;52.464;13.590;2023-04-24T05:28:28;6.23;;;4.87;;
71626;SDS011;59475;52.464;13.590;2023-04-24T05:30:53;6.67;;;4.57;;
71626;SDS011;59475;52.464;13.590;2023-04-24T05:33:20;5.15;;;4.57;;
71626;SDS011;59475;52.464;13.590;2023-04-24T05:35:47;7.00;;;4.50;;
71626;SDS011;59475;52.464;13.590;2023-04-24T05:38:13;6.70;;;4.00;;
71626;SDS011;59475;52.464;13.590;2023-04-24T05:40:39;5.33;;;4.27;;
71626;SDS011;59475;52.464;13.590;2023-04-24T05:43:04;7.13;;;4.30;;
71626;SDS011;59475;52.464;13.590;2023-04-24T05:45:30;5.23;;;4.07;;
71626;SDS011;59475;52.464;13.590;2023-04-24T05:47:55;5.87;;;4.13;;
71626;SDS011;59475;52.464;13.590;2023-04-24T05:50:21;4.55;;;3.50;;
71626;SDS011;59475;52.464;13.590;2023-04-24T05:52:46;4.63;;;3.40;;
71626;SDS011;59475;52.464;13.590;2023-04-24T05:55:11;4.20;;;3.27;;
71626;SDS011;59475;52.464;13.590;2023-04-24T05:57:38;4.00;;;3.13;;
71626;SDS011;59475;52.464;13.590;2023-04-24T06:00:03;3.87;;;2.60;;
71626;SDS011;59475;52.464;13.590;2023-04-24T06:02:30;2.50;;;2.30;;
71626;SDS011;59475;52.464;13.590;2023-04-24T06:04:57;4.38;;;2.72;;
71626;SDS011;59475;52.464;13.590;2023-04-24T06:07:24;3.13;;;2.65;;
71626;SDS011;59475;52.464;13.590;2023-04-24T06:09:51;2.85;;;2.38;;
71626;SDS011;59475;52.464;13.590;2023-04-24T06:12:17;2.90;;;2.30;;
71626;SDS011;59475;52.464;13.590;2023-04-24T06:14:42;11.40;;;2.33;;
71626;SDS011;59475;52.464;13.590;2023-04-24T06:17:08;3.63;;;2.10;;
71626;SDS011;59475;52.464;13.590;2023-04-24T06:19:33;3.30;;;2.60;;
71626;SDS011;59475;52.464;13.590;2023-04-24T06:21:59;4.07;;;2.40;;
71626;SDS011;59475;52.464;13.590;2023-04-24T06:24:27;2.93;;;2.40;;
71626;SDS011;59475;52.464;13.590;2023-04-24T06:26:53;3.33;;;2.20;;
71626;SDS011;59475;52.464;13.590;2023-04-24T06:29:19;2.47;;;2.10;;
71626;SDS011;59475;52.464;13.590;2023-04-24T06:31:44;2.43;;;2.00;;
71626;SDS011;59475;52.464;13.590;2023-04-24T06:34:10;3.47;;;2.00;;
71626;SDS011;59475;52.464;13.590;2023-04-24T06:36:35;2.53;;;2.08;;
71626;SDS011;59475;52.464;13.590;2023-04-24T06:39:00;2.53;;;2.33;;
71626;SDS011;59475;52.464;13.590;2023-04-24T06:41:26;3.60;;;2.03;;
71626;SDS011;59475;52.464;13.590;2023-04-24T06:43:52;3.28;;;1.80;;
71626;SDS011;59475;52.464;13.590;2023-04-24T06:46:17;2.47;;;1.77;;
71626;SDS011;59475;52.464;13.590;2023-04-24T06:48:43;2.20;;;1.80;;
71626;SDS011;59475;52.464;13.590;2023-04-24T06:51:08;2.35;;;1.85;;
71626;SDS011;59475;52.464;13.590;2023-04-24T06:53:34;3.93;;;1.47;;
71626;SDS011;59475;52.464;13.590;2023-04-24T06:56:00;2.78;;;1.70;;
71626;SDS011;59475;52.464;13.590;2023-04-24T06:58:25;3.83;;;1.97;;
71626;SDS011;59475;52.464;13.590;2023-04-24T07:00:51;3.20;;;1.63;;
71626;SDS011;59475;52.464;13.590;2023-04-24T07:03:16;1.30;;;1.20;;
71626;SDS011;59475;52.464;13.590;2023-04-24T07:05:41;5.23;;;1.73;;
71626;SDS011;59475;52.464;13.590;2023-04-24T07:08:07;2.53;;;1.30;;
71626;SDS011;59475;52.464;13.590;2023-04-24T07:10:36;2.13;;;1.65;;
71626;SDS011;59475;52.464;13.590;2023-04-24T07:13:01;3.38;;;1.40;;
71626;SDS011;59475;52.464;13.590;2023-04-24T07:15:27;2.30;;;1.07;;
71626;SDS011;59475;52.464;13.590;2023-04-24T07:17:52;1.57;;;1.47;;
71626;SDS011;59475;52.464;13.590;2023-04-24T07:20:18;1.50;;;1.40;;
71626;SDS011;59475;52.464;13.590;2023-04-24T07:22:43;1.75;;;1.50;;
71626;SDS011;59475;52.464;13.590;2023-04-24T07:25:09;1.73;;;1.23;;
71626;SDS011;59475;52.464;13.590;2023-04-24T07:27:35;3.97;;;1.30;;
71626;SDS011;59475;52.464;13.590;2023-04-24T07:30:01;2.75;;;1.30;;
71626;SDS011;59475;52.464;13.590;2023-04-24T07:32:27;1.90;;;1.40;;
71626;SDS011;59475;52.464;13.590;2023-04-24T07:34:52;2.13;;;1.23;;
71626;SDS011;59475;52.464;13.590;2023-04-24T07:37:18;3.10;;;1.10;;
71626;SDS011;59475;52.464;13.590;2023-04-24T07:39:43;2.47;;;1.03;;
71626;SDS011;59475;52.464;13.590;2023-04-24T07:42:09;4.35;;;1.48;;
71626;SDS011;59475;52.464;13.590;2023-04-24T07:44:34;3.03;;;1.00;;
71626;SDS011;59475;52.464;13.590;2023-04-24T07:47:00;2.90;;;1.10;;
71626;SDS011;59475;52.464;13.590;2023-04-24T07:49:26;1.53;;;1.13;;
71626;SDS011;59475;52.464;13.590;2023-04-24T07:51:52;2.22;;;1.13;;
71626;SDS011;59475;52.464;13.590;2023-04-24T07:54:18;1.30;;;0.93;;
71626;SDS011;59475;52.464;13.590;2023-04-24T07:56:43;2.07;;;1.00;;
71626;SDS011;59475;52.464;13.590;2023-04-24T07:59:09;5.00;;;1.10;;
71626;SDS011;59475;52.464;13.590;2023-04-24T08:01:35;2.78;;;0.80;;
71626;SDS011;59475;52.464;13.590;2023-04-24T08:04:01;1.10;;;0.80;;
71626;SDS011;59475;52.464;13.590;2023-04-24T08:06:27;2.33;;;1.57;;
71626;SDS011;59475;52.464;13.590;2023-04-24T08:08:57;3.47;;;0.90;;
71626;SDS011;59475;52.464;13.590;2023-04-24T08:11:22;1.25;;;1.00;;
71626;SDS011;59475;52.464;13.590;2023-04-24T08:13:48;1.73;;;0.90;;
71626;SDS011;59475;52.464;13.590;2023-04-24T08:16:13;2.53;;;1.07;;
71626;SDS011;59475;52.464;13.590;2023-04-24T08:18:39;1.60;;;1.10;;
71626;SDS011;59475;52.464;13.590;2023-04-24T08:21:04;1.30;;;1.00;;
71626;SDS011;59475;52.464;13.590;2023-04-24T08:23:30;1.10;;;0.80;;
71626;SDS011;59475;52.464;13.590;2023-04-24T08:25:55;1.50;;;1.10;;
71626;SDS011;59475;52.464;13.590;2023-04-24T08:28:21;1.27;;;1.00;;
71626;SDS011;59475;52.464;13.590;2023-04-24T08:30:47;1.60;;;1.13;;
71626;SDS011;59475;52.464;13.590;2023-04-24T08:33:13;1.10;;;0.90;;
71626;SDS011;59475;52.464;13.590;2023-04-24T08:35:39;0.77;;;0.60;;
71626;SDS011;59475;52.464;13.590;2023-04-24T08:38:05;1.00;;;0.80;;
71626;SDS011;59475;52.464;13.590;2023-04-24T08:40:30;1.40;;;0.80;;
71626;SDS011;59475;52.464;13.590;2023-04-24T08:43:00;1.13;;;0.77;;
71626;SDS011;59475;52.464;13.590;2023-04-24T08:45:25;1.10;;;1.00;;
71626;SDS011;59475;52.464;13.590;2023-04-24T08:47:52;2.07;;;0.80;;
71626;SDS011;59475;52.464;13.590;2023-04-24T08:50:19;2.88;;;0.95;;
71626;SDS011;59475;52.464;13.590;2023-04-24T08:52:45;1.00;;;0.77;;
71626;SDS011;59475;52.464;13.590;2023-04-24T08:55:12;1.40;;;0.90;;
71626;SDS011;59475;52.464;13.590;2023-04-24T08:57:38;2.77;;;1.07;;
71626;SDS011;59475;52.464;13.590;2023-04-24T09:00:05;0.90;;;0.80;;
71626;SDS011;59475;52.464;13.590;2023-04-24T09:02:31;1.63;;;0.90;;
71626;SDS011;59475;52.464;13.590;2023-04-24T09:04:59;1.10;;;0.73;;
71626;SDS011;59475;52.464;13.590;2023-04-24T09:07:25;2.57;;;0.87;;
71626;SDS011;59475;52.464;13.590;2023-04-24T09:09:53;4.28;;;0.80;;
71626;SDS011;59475;52.464;13.590;2023-04-24T09:12:19;1.30;;;0.90;;
71626;SDS011;59475;52.464;13.590;2023-04-24T09:14:45;1.55;;;1.10;;
71626;SDS011;59475;52.464;13.590;2023-04-24T09:17:11;2.50;;;0.70;;
71626;SDS011;59475;52.464;13.590;2023-04-24T09:19:37;2.75;;;0.90;;
71626;SDS011;59475;52.464;13.590;2023-04-24T09:22:06;2.13;;;1.10;;
71626;SDS011;59475;52.464;13.590;2023-04-24T09:24:32;1.08;;;0.90;;
71626;SDS011;59475;52.464;13.590;2023-04-24T09:26:58;1.55;;;0.80;;
71626;SDS011;59475;52.464;13.590;2023-04-24T09:29:24;1.20;;;1.10;;
71626;SDS011;59475;52.464;13.590;2023-04-24T09:31:50;2.78;;;1.00;;
71626;SDS011;59475;52.464;13.590;2023-04-24T09:34:19;1.13;;;0.80;;
71626;SDS011;59475;52.464;13.590;2023-04-24T09:36:49;1.10;;;0.68;;
71626;SDS011;59475;52.464;13.590;2023-04-24T09:39:17;1.40;;;0.90;;
71626;SDS011;59475;52.464;13.590;2023-04-24T09:41:48;3.35;;;0.80;;
71626;SDS011;59475;52.464;13.590;2023-04-24T09:44:47;0.90;;;0.60;;
71626;SDS011;59475;52.464;13.590;2023-04-24T09:47:06;1.73;;;0.90;;
71626;SDS011;59475;52.464;13.590;2023-04-24T09:49:34;2.80;;;0.90;;
71626;SDS011;59475;52.464;13.590;2023-04-24T09:52:05;2.08;;;1.20;;
71626;SDS011;59475;52.464;13.590;2023-04-24T09:54:32;1.88;;;1.20;;
71626;SDS011;59475;52.464;13.590;2023-04-24T09:56:58;3.97;;;1.20;;
71626;SDS011;59475;52.464;13.590;2023-04-24T09:59:25;1.70;;;0.90;;
71626;SDS011;59475;52.464;13.590;2023-04-24T10:01:50;1.23;;;1.00;;
71626;SDS011;59475;52.464;13.590;2023-04-24T10:04:21;2.93;;;1.03;;
71626;SDS011;59475;52.464;13.590;2023-04-24T10:06:51;2.33;;;0.95;;
71626;SDS011;59475;52.464;13.590;2023-04-24T10:09:19;3.00;;;1.33;;
71626;SDS011;59475;52.464;13.590;2023-04-24T10:11:48;2.42;;;0.90;;
71626;SDS011;59475;52.464;13.590;2023-04-24T10:14:16;0.93;;;0.80;;
71626;SDS011;59475;52.464;13.590;2023-04-24T10:16:42;2.13;;;0.97;;
71626;SDS011;59475;52.464;13.590;2023-04-24T10:19:09;0.68;;;0.50;;
71626;SDS011;59475;52.464;13.590;2023-04-24T10:21:36;1.20;;;0.90;;
71626;SDS011;59475;52.464;13.590;2023-04-24T10:24:07;1.52;;;1.00;;
71626;SDS011;59475;52.464;13.590;2023-04-24T10:26:36;3.67;;;0.77;;
71626;SDS011;59475;52.464;13.590;2023-04-24T10:29:02;2.50;;;0.70;;
71626;SDS011;59475;52.464;13.590;2023-04-24T10:31:34;0.93;;;0.60;;
71626;SDS011;59475;52.464;13.590;2023-04-24T10:34:01;2.33;;;0.90;;
71626;SDS011;59475;52.464;13.590;2023-04-24T10:36:28;2.30;;;1.00;;
71626;SDS011;59475;52.464;13.590;2023-04-24T10:38:54;1.57;;;0.70;;
71626;SDS011;59475;52.464;13.590;2023-04-24T10:41:21;1.60;;;0.90;;
71626;SDS011;59475;52.464;13.590;2023-04-24T10:44:09;2.95;;;1.02;;
71626;SDS011;59475;52.464;13.590;2023-04-24T10:46:36;1.42;;;1.00;;
71626;SDS011;59475;52.464;13.590;2023-04-24T10:49:03;1.65;;;1.00;;
71626;SDS011;59475;52.464;13.590;2023-04-24T10:51:52;4.27;;;1.00;;
71626;SDS011;59475;52.464;13.590;2023-04-24T10:54:28;1.73;;;1.00;;
71626;SDS011;59475;52.464;13.590;2023-04-24T10:59:50;1.27;;;1.10;;
71626;SDS011;59475;52.464;13.590;2023-04-24T11:02:38;1.85;;;0.90;;
71626;SDS011;59475;52.464;13.590;2023-04-24T11:05:05;2.07;;;0.90;;
71626;SDS011;59475;52.464;13.590;2023-04-24T11:10:37;1.17;;;1.00;;
71626;SDS011;59475;52.464;13.590;2023-04-24T11:13:03;1.33;;;1.10;;
71626;SDS011;59475;52.464;13.590;2023-04-24T11:15:29;1.20;;;0.87;;
71626;SDS011;59475;52.464;13.590;2023-04-24T11:17:55;1.88;;;1.20;;
71626;SDS011;59475;52.464;13.590;2023-04-24T11:20:22;2.37;;;1.07;;
71626;SDS011;59475;52.464;13.590;2023-04-24T11:22:48;1.83;;;1.00;;
71626;SDS011;59475;52.464;13.590;2023-04-24T11:25:19;3.55;;;1.17;;
71626;SDS011;59475;52.464;13.590;2023-04-24T11:27:47;1.45;;;1.02;;
71626;SDS011;59475;52.464;13.590;2023-04-24T11:30:18;1.20;;;0.80;;
71626;SDS011;59475;52.464;13.590;2023-04-24T11:32:47;1.60;;;1.10;;
71626;SDS011;59475;52.464;13.590;2023-04-24T11:37:45;1.33;;;0.95;;
71626;SDS011;59475;52.464;13.590;2023-04-24T11:40:14;1.00;;;0.90;;
71626;SDS011;59475;52.464;13.590;2023-04-24T11:42:41;1.55;;;1.00;;
71626;SDS011;59475;52.464;13.590;2023-04-24T11:45:12;2.17;;;0.93;;
71626;SDS011;59475;52.464;13.590;2023-04-24T11:47:39;3.42;;;1.40;;
71626;SDS011;59475;52.464;13.590;2023-04-24T11:50:06;3.78;;;1.58;;
71626;SDS011;59475;52.464;13.590;2023-04-24T11:52:36;2.58;;;1.30;;
71626;SDS011;59475;52.464;13.590;2023-04-24T11:55:03;2.13;;;1.50;;
71626;SDS011;59475;52.464;13.590;2023-04-24T11:57:28;3.40;;;1.60;;
71626;SDS011;59475;52.464;13.590;2023-04-24T11:59:58;1.83;;;1.60;;
71626;SDS011;59475;52.464;13.590;2023-04-24T12:02:25;4.88;;;1.75;;
71626;SDS011;59475;52.464;13.590;2023-04-24T12:04:54;3.10;;;1.80;;
71626;SDS011;59475;52.464;13.590;2023-04-24T12:07:20;1.75;;;1.60;;
71626;SDS011;59475;52.464;13.590;2023-04-24T12:09:46;2.38;;;1.48;;
71626;SDS011;59475;52.464;13.590;2023-04-24T12:12:13;3.43;;;1.83;;
71626;SDS011;59475;52.464;13.590;2023-04-24T12:14:50;2.95;;;1.50;;
71626;SDS011;59475;52.464;13.590;2023-04-24T12:19:51;2.45;;;1.77;;
71626;SDS011;59475;52.464;13.590;2023-04-24T12:22:16;1.87;;;1.77;;
71626;SDS011;59475;52.464;13.590;2023-04-24T12:27:22;1.70;;;1.60;;
71626;SDS011;59475;52.464;13.590;2023-04-24T12:29:52;2.77;;;1.70;;
71626;SDS011;59475;52.464;13.590;2023-04-24T12:32:18;1.77;;;1.40;;
71626;SDS011;59475;52.464;13.590;2023-04-24T12:34:44;1.73;;;1.30;;
71626;SDS011;59475;52.464;13.590;2023-04-24T12:37:11;2.08;;;1.50;;
71626;SDS011;59475;52.464;13.590;2023-04-24T12:39:37;1.58;;;1.33;;
71626;SDS011;59475;52.464;13.590;2023-04-24T12:42:03;1.42;;;1.23;;
71626;SDS011;59475;52.464;13.590;2023-04-24T12:44:29;2.60;;;1.40;;
71626;SDS011;59475;52.464;13.590;2023-04-24T12:46:59;1.52;;;1.00;;
71626;SDS011;59475;52.464;13.590;2023-04-24T12:49:25;1.10;;;0.80;;
71626;SDS011;59475;52.464;13.590;2023-04-24T12:51:51;2.60;;;1.13;;
71626;SDS011;59475;52.464;13.590;2023-04-24T12:54:16;1.20;;;0.83;;
71626;SDS011;59475;52.464;13.590;2023-04-24T12:56:42;2.75;;;1.23;;
71626;SDS011;59475;52.464;13.590;2023-04-24T12:59:07;2.67;;;0.80;;
71626;SDS011;59475;52.464;13.590;2023-04-24T13:01:33;1.83;;;0.97;;
71626;SDS011;59475;52.464;13.590;2023-04-24T13:03:58;0.90;;;0.80;;
71626;SDS011;59475;52.464;13.590;2023-04-24T13:06:24;1.23;;;0.80;;
71626;SDS011;59475;52.464;13.590;2023-04-24T13:08:51;1.52;;;1.00;;
71626;SDS011;59475;52.464;13.590;2023-04-24T13:11:16;1.30;;;0.90;;
71626;SDS011;59475;52.464;13.590;2023-04-24T13:13:42;3.10;;;0.80;;
71626;SDS011;59475;52.464;13.590;2023-04-24T13:16:07;1.40;;;1.02;;
71626;SDS011;59475;52.464;13.590;2023-04-24T13:18:32;5.13;;;0.90;;
71626;SDS011;59475;52.464;13.590;2023-04-24T13:20:58;1.00;;;0.90;;
71626;SDS011;59475;52.464;13.590;2023-04-24T13:23:23;2.00;;;0.73;;
71626;SDS011;59475;52.464;13.590;2023-04-24T13:25:49;0.93;;;0.73;;
71626;SDS011;59475;52.464;13.590;2023-04-24T13:28:15;1.38;;;0.90;;
71626;SDS011;59475;52.464;13.590;2023-04-24T13:30:40;2.25;;;0.80;;
71626;SDS011;59475;52.464;13.590;2023-04-24T13:33:06;2.60;;;0.90;;
71626;SDS011;59475;52.464;13.590;2023-04-24T13:35:31;0.77;;;0.70;;
71626;SDS011;59475;52.464;13.590;2023-04-24T13:37:57;1.27;;;0.80;;
71626;SDS011;59475;52.464;13.590;2023-04-24T13:40:23;1.45;;;0.82;;
71626;SDS011;59475;52.464;13.590;2023-04-24T13:42:48;0.93;;;0.70;;
71626;SDS011;59475;52.464;13.590;2023-04-24T13:45:14;2.65;;;0.93;;
71626;SDS011;59475;52.464;13.590;2023-04-24T13:47:39;1.83;;;0.77;;
71626;SDS011;59475;52.464;13.590;2023-04-24T13:50:06;1.48;;;1.00;;
71626;SDS011;59475;52.464;13.590;2023-04-24T13:52:33;1.58;;;0.70;;
71626;SDS011;59475;52.464;13.590;2023-04-24T13:54:58;1.57;;;1.00;;
71626;SDS011;59475;52.464;13.590;2023-04-24T13:57:24;1.53;;;0.97;;
71626;SDS011;59475;52.464;13.590;2023-04-24T13:59:50;1.10;;;0.70;;
71626;SDS011;59475;52.464;13.590;2023-04-24T14:02:15;2.27;;;0.90;;
71626;SDS011;59475;52.464;13.590;2023-04-24T14:04:40;1.20;;;0.93;;
71626;SDS011;59475;52.464;13.590;2023-04-24T14:07:06;1.00;;;0.90;;
71626;SDS011;59475;52.464;13.590;2023-04-24T14:09:32;1.35;;;0.93;;
71626;SDS011;59475;52.464;13.590;2023-04-24T14:11:58;1.50;;;0.90;;
71626;SDS011;59475;52.464;13.590;2023-04-24T14:14:24;1.60;;;0.70;;
71626;SDS011;59475;52.464;13.590;2023-04-24T14:16:49;0.87;;;0.77;;
71626;SDS011;59475;52.464;13.590;2023-04-24T14:19:15;1.40;;;1.00;;
71626;SDS011;59475;52.464;13.590;2023-04-24T14:21:40;2.92;;;0.90;;
71626;SDS011;59475;52.464;13.590;2023-04-24T14:24:05;1.17;;;0.90;;
71626;SDS011;59475;52.464;13.590;2023-04-24T14:26:31;1.77;;;0.90;;
71626;SDS011;59475;52.464;13.590;2023-04-24T14:28:56;1.10;;;1.00;;
71626;SDS011;59475;52.464;13.590;2023-04-24T14:31:23;1.52;;;1.00;;
71626;SDS011;59475;52.464;13.590;2023-04-24T14:33:49;1.00;;;0.90;;
71626;SDS011;59475;52.464;13.590;2023-04-24T14:36:14;1.43;;;0.90;;
71626;SDS011;59475;52.464;13.590;2023-04-24T14:38:40;1.63;;;1.00;;
71626;SDS011;59475;52.464;13.590;2023-04-24T14:41:05;2.53;;;0.87;;